Time;durP1;ratioP1;P1;durP2;ratioP2;P2;SDS_P1;SDS_P2;PMS_P1;PMS_P2;Temp;Humidity;BMP_temperature;BMP_pressure;BME280_temperature;BME280_humidity;BME280_pressure;Samples;Min_cycle;Max_cycle;Signal;HPM_P1;HPM_P2
2023/10/19 00:01:59;;;;;;;31.37;17.00;;;11.00;99.90;;;;;;5067715;28;20449;-72
2023/10/19 00:04:26;;;;;;;28.40;18.27;;;10.90;99.90;;;;;;5068223;28;20463;-71
2023/10/19 00:06:54;;;;;;;26.43;18.97;;;11.00;99.90;;;;;;5068088;28;20453;-72
2023/10/19 00:09:22;;;;;;;27.10;18.33;;;11.00;99.90;;;;;;5067982;28;20447;-74
2023/10/19 00:11:51;;;;;;;24.27;17.20;;;11.00;99.90;;;;;;5067280;28;20454;-72
2023/10/19 00:14:18;;;;;;;27.30;18.40;;;11.10;99.90;;;;;;5067775;28;20486;-72
2023/10/19 00:16:56;;;;;;;25.67;17.50;;;11.00;99.90;;;;;;5067735;28;20518;-73
2023/10/19 00:19:27;;;;;;;25.60;17.63;;;11.00;99.90;;;;;;5068022;28;20439;-73
2023/10/19 00:22:01;;;;;;;25.43;17.83;;;11.00;99.90;;;;;;5067595;28;20452;-73
2023/10/19 00:24:31;;;;;;;26.33;17.60;;;11.00;99.90;;;;;;5067573;28;20451;-73
2023/10/19 00:27:05;;;;;;;26.60;17.73;;;11.00;99.90;;;;;;5067810;28;20445;-72
2023/10/19 00:29:40;;;;;;;26.63;16.77;;;11.10;99.90;;;;;;5067898;28;20792;-73
2023/10/19 00:32:13;;;;;;;24.27;16.30;;;11.10;99.90;;;;;;5069579;28;20449;-72
2023/10/19 00:34:43;;;;;;;26.00;17.10;;;11.10;99.90;;;;;;5070960;28;20543;-72
2023/10/19 00:37:12;;;;;;;27.33;16.63;;;11.10;99.90;;;;;;5071154;28;20443;-74
2023/10/19 00:39:43;;;;;;;26.37;17.53;;;11.20;99.90;;;;;;5071147;28;20976;-73
2023/10/19 00:42:15;;;;;;;26.33;18.17;;;11.20;99.90;;;;;;5071108;28;20522;-74
2023/10/19 00:44:43;;;;;;;25.67;17.00;;;11.20;99.90;;;;;;5071137;28;20455;-74
2023/10/19 00:47:15;;;;;;;24.43;16.87;;;11.20;99.90;;;;;;5071204;28;20856;-73
2023/10/19 00:49:44;;;;;;;23.83;16.93;;;11.20;99.90;;;;;;5071197;28;20445;-72
2023/10/19 00:52:12;;;;;;;23.77;17.50;;;11.20;99.90;;;;;;5071017;28;20505;-74
2023/10/19 00:54:51;;;;;;;25.17;16.50;;;11.20;99.90;;;;;;5068309;28;20931;-73
2023/10/19 00:57:22;;;;;;;24.60;17.00;;;11.20;99.90;;;;;;5065067;28;20490;-73
2023/10/19 00:59:53;;;;;;;25.47;16.83;;;11.20;99.90;;;;;;5070149;28;20447;-73
2023/10/19 01:02:28;;;;;;;20.50;14.93;;;11.20;99.90;;;;;;5063997;28;20452;-73
2023/10/19 01:05:00;;;;;;;27.67;17.87;;;11.30;99.90;;;;;;5069947;28;20928;-73
2023/10/19 01:07:29;;;;;;;23.20;16.43;;;11.20;99.90;;;;;;5070839;28;20439;-73
2023/10/19 01:09:59;;;;;;;24.50;16.97;;;11.30;99.90;;;;;;5067989;28;20458;-73
2023/10/19 01:12:38;;;;;;;24.90;17.63;;;11.30;99.90;;;;;;5070091;28;20441;-72
2023/10/19 01:15:13;;;;;;;25.23;15.50;;;11.40;99.90;;;;;;5070051;28;20482;-72
2023/10/19 01:17:44;;;;;;;20.23;14.60;;;11.40;99.90;;;;;;5070460;28;20450;-73
2023/10/19 01:20:20;;;;;;;23.30;15.87;;;11.50;99.90;;;;;;5070355;28;20474;-72
2023/10/19 01:22:53;;;;;;;25.53;16.13;;;11.50;99.90;;;;;;5068206;28;21015;-73
2023/10/19 01:25:34;;;;;;;23.07;15.67;;;11.50;99.90;;;;;;5068166;28;20451;-72
2023/10/19 01:28:08;;;;;;;21.17;15.77;;;11.40;99.90;;;;;;5070467;28;20500;-72
2023/10/19 01:30:36;;;;;;;24.00;15.40;;;11.50;99.90;;;;;;5070502;28;20441;-72
2023/10/19 01:33:12;;;;;;;23.10;15.30;;;11.50;99.90;;;;;;5069486;28;20458;-74
2023/10/19 01:38:24;;;;;;;23.27;15.27;;;11.50;99.90;;;;;;5062682;28;20505;-72
2023/10/19 01:40:54;;;;;;;19.50;13.83;;;11.60;99.90;;;;;;5069493;28;20477;-74
2023/10/19 01:43:25;;;;;;;19.10;13.73;;;11.70;99.90;;;;;;5069832;28;20449;-72
2023/10/19 01:45:55;;;;;;;20.23;13.40;;;11.80;99.90;;;;;;5070202;28;20477;-72
2023/10/19 01:48:27;;;;;;;20.40;12.80;;;11.80;99.90;;;;;;5070084;28;20502;-72
2023/10/19 01:50:55;;;;;;;22.47;14.30;;;11.80;99.90;;;;;;5069422;28;20442;-72
2023/10/19 01:53:25;;;;;;;19.67;13.00;;;11.90;99.90;;;;;;5069649;28;20447;-73
2023/10/19 01:55:57;;;;;;;24.97;15.90;;;11.90;99.90;;;;;;5069533;28;20535;-72
2023/10/19 01:58:27;;;;;;;23.07;15.23;;;11.80;99.90;;;;;;5069610;28;20442;-74
2023/10/19 02:01:00;;;;;;;22.67;14.87;;;11.90;99.90;;;;;;5068986;28;20462;-73
2023/10/19 02:03:28;;;;;;;21.87;16.60;;;11.80;99.90;;;;;;5069271;28;20446;-74
2023/10/19 02:06:00;;;;;;;22.70;15.13;;;11.80;99.90;;;;;;5069487;28;20534;-72
2023/10/19 02:08:28;;;;;;;23.03;15.60;;;11.80;99.90;;;;;;5069587;28;20824;-73
2023/10/19 02:10:57;;;;;;;21.50;15.13;;;11.80;99.90;;;;;;5068843;28;20530;-73
2023/10/19 02:13:24;;;;;;;20.70;15.33;;;11.80;99.90;;;;;;5069236;28;20454;-72
2023/10/19 02:15:52;;;;;;;28.57;15.17;;;11.80;99.90;;;;;;5069339;28;20487;-72
2023/10/19 02:18:19;;;;;;;21.00;14.77;;;11.80;99.90;;;;;;5069584;28;20825;-73
2023/10/19 02:20:48;;;;;;;19.43;14.47;;;11.90;99.90;;;;;;5069038;28;20938;-71
2023/10/19 02:23:15;;;;;;;21.93;15.50;;;11.90;99.90;;;;;;5069070;28;20458;-73
2023/10/19 02:25:44;;;;;;;21.43;14.80;;;11.80;99.90;;;;;;5069250;28;20488;-72
2023/10/19 02:28:11;;;;;;;22.87;14.50;;;11.80;99.90;;;;;;5061060;28;20446;-74
2023/10/19 02:30:42;;;;;;;21.33;14.60;;;11.90;99.90;;;;;;5069276;28;20452;-72
2023/10/19 02:33:09;;;;;;;22.23;15.37;;;11.90;99.90;;;;;;5068380;28;20437;-72
2023/10/19 02:35:37;;;;;;;22.60;15.20;;;12.00;99.90;;;;;;5068971;28;20490;-71
2023/10/19 02:38:04;;;;;;;24.03;15.50;;;12.10;99.90;;;;;;5068814;28;20446;-72
2023/10/19 02:40:32;;;;;;;22.90;14.60;;;12.00;99.90;;;;;;5069123;28;21335;-69
2023/10/19 02:43:03;;;;;;;21.33;14.93;;;11.90;99.90;;;;;;5068535;28;20451;-69
2023/10/19 02:45:31;;;;;;;20.70;14.77;;;11.90;99.90;;;;;;5068865;28;20454;-74
2023/10/19 02:47:58;;;;;;;23.03;15.20;;;11.90;99.90;;;;;;5069012;28;20459;-70
2023/10/19 02:50:27;;;;;;;23.10;15.97;;;11.90;99.90;;;;;;5068890;28;20513;-72
2023/10/19 02:52:54;;;;;;;21.33;15.53;;;12.00;99.90;;;;;;5068619;28;20504;-71
2023/10/19 02:55:23;;;;;;;23.77;15.47;;;12.00;99.90;;;;;;5068554;28;20645;-71
2023/10/19 02:57:51;;;;;;;27.40;15.47;;;11.90;99.90;;;;;;5068828;28;20821;-69
2023/10/19 03:00:20;;;;;;;25.63;15.40;;;11.90;99.90;;;;;;5068851;28;20995;-71
2023/10/19 03:02:51;;;;;;;22.93;16.43;;;11.90;99.90;;;;;;5068538;28;20442;-71
2023/10/19 03:05:19;;;;;;;22.73;14.33;;;11.90;99.90;;;;;;5068895;28;20823;-72
2023/10/19 03:07:48;;;;;;;27.20;15.43;;;11.90;99.90;;;;;;5068867;28;20452;-71
2023/10/19 03:10:23;;;;;;;21.10;14.87;;;11.80;99.90;;;;;;5060545;28;20908;-71
2023/10/19 03:12:52;;;;;;;23.17;14.93;;;11.80;99.90;;;;;;5067951;28;20514;-73
2023/10/19 03:15:22;;;;;;;21.57;14.00;;;11.80;99.90;;;;;;5068259;28;20572;-73
2023/10/19 03:17:50;;;;;;;22.80;15.50;;;11.70;99.90;;;;;;5068411;28;20987;-72
2023/10/19 03:20:23;;;;;;;22.57;15.60;;;11.60;99.90;;;;;;5068339;28;20453;-71
2023/10/19 03:22:51;;;;;;;20.53;15.20;;;11.60;99.90;;;;;;5068159;28;20437;-72
2023/10/19 03:28:10;;;;;;;20.63;13.57;;;11.40;99.90;;;;;;5067964;28;20482;-72
2023/10/19 03:30:39;;;;;;;20.57;13.53;;;11.30;99.90;;;;;;5068069;28;20439;-72
2023/10/19 03:33:08;;;;;;;21.53;15.60;;;11.30;99.90;;;;;;5067895;28;20458;-71
2023/10/19 03:35:38;;;;;;;20.00;13.13;;;11.20;99.90;;;;;;5068248;28;20501;-72
2023/10/19 03:38:14;;;;;;;23.23;15.47;;;11.10;99.90;;;;;;5068236;28;20970;-73
2023/10/19 03:40:46;;;;;;;22.93;15.77;;;11.20;99.90;;;;;;5068331;28;20441;-73
2023/10/19 03:43:18;;;;;;;23.90;17.70;;;11.30;99.90;;;;;;5067442;28;20446;-73
2023/10/19 03:45:51;;;;;;;23.47;15.97;;;11.40;99.90;;;;;;5068198;28;20520;-73
2023/10/19 03:48:26;;;;;;;26.67;16.77;;;11.50;99.90;;;;;;5067982;28;20463;-72
2023/10/19 03:50:55;;;;;;;22.20;14.00;;;11.40;99.90;;;;;;5067333;28;21108;-70
2023/10/19 03:53:24;;;;;;;18.63;12.30;;;11.40;99.90;;;;;;5068008;28;20860;-71
2023/10/19 03:55:54;;;;;;;18.60;13.10;;;11.40;99.90;;;;;;5067927;28;20578;-70
2023/10/19 03:58:28;;;;;;;22.47;13.90;;;11.30;99.90;;;;;;5067932;28;20444;-72
2023/10/19 04:01:01;;;;;;;22.17;13.40;;;11.20;99.90;;;;;;5067563;28;20447;-72
2023/10/19 04:03:30;;;;;;;20.13;12.70;;;11.10;99.90;;;;;;5067527;28;20446;-73
2023/10/19 04:06:03;;;;;;;24.40;15.50;;;10.90;99.90;;;;;;5063181;28;20507;-72
2023/10/19 04:08:35;;;;;;;21.47;14.20;;;11.00;99.90;;;;;;5070793;28;20443;-71
2023/10/19 04:11:11;;;;;;;25.17;15.40;;;10.90;99.90;;;;;;5070896;28;20463;-71
2023/10/19 04:13:39;;;;;;;22.63;15.23;;;10.90;99.90;;;;;;5070900;28;20440;-73
2023/10/19 04:16:10;;;;;;;25.17;15.93;;;10.90;99.90;;;;;;5071711;28;20913;-71
2023/10/19 04:18:43;;;;;;;23.93;15.30;;;11.00;99.90;;;;;;5072352;28;20443;-71
2023/10/19 04:21:11;;;;;;;22.57;15.20;;;10.90;99.90;;;;;;5070938;28;20446;-68
2023/10/19 04:23:39;;;;;;;23.50;15.53;;;10.90;99.90;;;;;;5071394;28;20878;-72
2023/10/19 04:26:11;;;;;;;22.13;15.50;;;10.90;99.90;;;;;;5071110;28;20499;-70
2023/10/19 04:28:44;;;;;;;22.00;15.47;;;10.90;99.90;;;;;;5071558;28;20529;-72
2023/10/19 04:31:18;;;;;;;26.20;17.67;;;11.00;99.90;;;;;;5071203;28;20562;-70
2023/10/19 04:33:47;;;;;;;23.73;16.40;;;11.00;99.90;;;;;;5071075;28;20450;-71
2023/10/19 04:36:16;;;;;;;24.93;16.80;;;11.10;99.90;;;;;;5070943;28;20514;-69
2023/10/19 04:38:44;;;;;;;21.30;15.70;;;11.20;99.90;;;;;;5071197;28;20477;-71
2023/10/19 04:41:12;;;;;;;26.60;16.93;;;11.30;99.90;;;;;;5071025;28;20444;-71
2023/10/19 04:43:43;;;;;;;24.50;15.77;;;11.50;99.90;;;;;;5071212;28;20461;-70
2023/10/19 04:46:12;;;;;;;24.17;16.77;;;11.50;99.90;;;;;;5070964;28;20539;-69
2023/10/19 04:48:42;;;;;;;20.87;15.27;;;11.50;99.90;;;;;;5071155;28;20890;-69
2023/10/19 04:51:10;;;;;;;25.13;15.50;;;11.40;99.90;;;;;;5070912;28;20454;-68
2023/10/19 04:53:39;;;;;;;24.50;15.10;;;11.30;99.90;;;;;;5070892;28;20948;-68
2023/10/19 04:56:09;;;;;;;24.83;15.33;;;11.40;99.90;;;;;;5071258;28;20488;-69
2023/10/19 04:58:37;;;;;;;24.83;15.43;;;11.30;99.90;;;;;;5071485;28;20449;-70
2023/10/19 05:01:06;;;;;;;19.73;13.87;;;11.40;99.90;;;;;;5064375;28;20466;-71
2023/10/19 05:03:34;;;;;;;19.97;14.20;;;11.30;99.90;;;;;;5062168;28;20450;-71
2023/10/19 05:06:04;;;;;;;21.20;14.10;;;11.20;99.90;;;;;;5065546;28;20524;-71
2023/10/19 05:08:32;;;;;;;21.73;14.30;;;11.20;99.90;;;;;;5062187;28;20482;-71
2023/10/19 05:11:01;;;;;;;23.80;16.80;;;11.10;99.90;;;;;;5062359;28;20454;-70
2023/10/19 05:13:30;;;;;;;25.73;17.83;;;11.10;99.90;;;;;;5062490;28;20447;-70
2023/10/19 05:15:59;;;;;;;26.10;15.80;;;11.20;99.90;;;;;;5061733;28;20534;-70
2023/10/19 05:18:27;;;;;;;24.80;15.77;;;11.20;99.90;;;;;;5061693;28;20645;-71
2023/10/19 05:20:56;;;;;;;24.27;15.93;;;11.10;99.90;;;;;;5062035;28;20998;-70
2023/10/19 05:23:26;;;;;;;26.53;16.10;;;11.10;99.90;;;;;;5063304;28;20452;-71
2023/10/19 05:26:02;;;;;;;27.50;16.77;;;11.10;99.90;;;;;;5069088;28;20987;-71
2023/10/19 05:28:30;;;;;;;24.87;17.27;;;11.20;99.90;;;;;;5070352;28;20456;-72
2023/10/19 05:30:59;;;;;;;32.20;20.17;;;11.20;99.90;;;;;;5069728;28;20453;-71
2023/10/19 05:33:29;;;;;;;29.80;19.20;;;11.30;99.90;;;;;;5069370;28;20455;-72
2023/10/19 05:35:57;;;;;;;26.50;17.67;;;11.30;99.90;;;;;;5069677;28;21021;-72
2023/10/19 05:38:27;;;;;;;27.70;16.63;;;11.30;99.90;;;;;;5070357;28;20506;-71
2023/10/19 05:40:55;;;;;;;26.00;17.80;;;11.20;99.90;;;;;;5069960;28;20518;-71
2023/10/19 05:43:23;;;;;;;25.33;16.50;;;11.20;99.90;;;;;;5069957;28;20452;-70
2023/10/19 05:45:52;;;;;;;24.10;16.10;;;11.20;99.90;;;;;;5070317;28;20463;-68
2023/10/19 05:48:21;;;;;;;28.07;17.53;;;11.20;99.90;;;;;;5062189;28;20558;-72
2023/10/19 05:50:49;;;;;;;24.40;16.40;;;11.30;99.90;;;;;;5069925;28;20440;-72
2023/10/19 05:53:18;;;;;;;24.57;16.60;;;11.40;99.90;;;;;;5069786;28;20501;-71
2023/10/19 05:55:47;;;;;;;31.00;18.20;;;11.30;99.90;;;;;;5069883;28;20542;-72
2023/10/19 05:58:16;;;;;;;28.17;17.20;;;11.40;99.90;;;;;;5069805;28;20538;-73
2023/10/19 06:00:43;;;;;;;29.33;17.90;;;11.30;99.90;;;;;;5069861;28;20439;-72
2023/10/19 06:03:11;;;;;;;28.30;19.40;;;11.30;99.90;;;;;;5069304;28;20452;-73
2023/10/19 06:05:39;;;;;;;27.27;17.53;;;11.20;99.90;;;;;;5069569;28;20506;-73
2023/10/19 06:08:08;;;;;;;25.57;15.47;;;11.20;99.90;;;;;;5069584;28;20868;-72
2023/10/19 06:10:39;;;;;;;25.73;16.23;;;11.20;99.90;;;;;;5069428;28;20996;-72
2023/10/19 06:13:09;;;;;;;23.93;15.40;;;11.20;99.90;;;;;;5069198;28;20493;-73
2023/10/19 06:15:38;;;;;;;24.03;17.30;;;11.20;99.90;;;;;;5069834;28;21181;-73
2023/10/19 06:18:06;;;;;;;24.97;17.57;;;11.30;99.90;;;;;;5069379;28;20486;-72
2023/10/19 06:20:34;;;;;;;25.00;16.63;;;11.30;99.90;;;;;;5069550;28;20525;-70
2023/10/19 06:23:04;;;;;;;24.83;16.70;;;11.50;99.90;;;;;;5069023;28;20454;-68
2023/10/19 06:25:34;;;;;;;27.90;18.17;;;11.50;99.90;;;;;;5069447;28;20576;-67
2023/10/19 06:28:02;;;;;;;25.90;17.90;;;11.60;99.90;;;;;;5068826;28;20508;-68
2023/10/19 06:30:32;;;;;;;31.70;20.00;;;11.60;99.90;;;;;;5068624;28;20465;-68
2023/10/19 06:33:02;;;;;;;26.43;16.90;;;11.60;99.90;;;;;;5068755;28;20477;-68
2023/10/19 06:35:32;;;;;;;24.17;17.87;;;11.70;99.90;;;;;;5068909;28;20492;-68
2023/10/19 06:38:03;;;;;;;25.17;16.10;;;11.80;99.90;;;;;;5069072;28;20550;-68
2023/10/19 06:40:32;;;;;;;30.70;18.03;;;11.90;99.90;;;;;;5069119;28;20453;-68
2023/10/19 06:43:02;;;;;;;27.90;16.77;;;11.90;99.90;;;;;;5068512;28;20459;-68
2023/10/19 06:45:33;;;;;;;26.30;16.70;;;11.90;99.90;;;;;;5069093;28;20493;-68
2023/10/19 06:48:01;;;;;;;30.50;16.30;;;11.90;99.90;;;;;;5069002;28;20477;-71
2023/10/19 06:50:30;;;;;;;22.90;15.50;;;12.00;99.90;;;;;;5069373;28;20812;-73
2023/10/19 06:52:57;;;;;;;27.80;16.60;;;12.00;99.90;;;;;;5068757;28;20465;-71
2023/10/19 06:55:28;;;;;;;23.93;15.70;;;12.00;99.90;;;;;;5069192;28;20492;-71
2023/10/19 06:57:56;;;;;;;21.77;14.80;;;12.10;99.90;;;;;;5069164;28;20842;-73
2023/10/19 07:00:26;;;;;;;21.77;15.97;;;12.10;99.90;;;;;;5069024;28;20962;-73
2023/10/19 07:03:00;;;;;;;21.70;15.43;;;12.20;99.90;;;;;;5068846;28;20558;-71
2023/10/19 07:05:30;;;;;;;20.97;14.40;;;12.10;99.90;;;;;;5069229;28;20466;-74
2023/10/19 07:07:59;;;;;;;23.87;16.23;;;12.40;99.90;;;;;;5068717;28;20477;-73
2023/10/19 07:10:28;;;;;;;19.20;14.33;;;12.50;99.90;;;;;;5068665;28;20539;-73
2023/10/19 07:12:57;;;;;;;21.87;16.00;;;12.50;99.90;;;;;;5068233;28;20479;-72
2023/10/19 07:15:26;;;;;;;24.77;14.57;;;12.60;99.90;;;;;;5068589;28;20543;-71
2023/10/19 07:17:56;;;;;;;19.47;13.43;;;12.60;99.90;;;;;;5068709;28;20565;-68
2023/10/19 07:20:26;;;;;;;19.67;13.53;;;12.60;99.90;;;;;;5068772;28;20530;-69
2023/10/19 07:22:55;;;;;;;23.40;14.67;;;12.60;99.90;;;;;;5068470;28;20467;-69
2023/10/19 07:25:25;;;;;;;19.20;13.10;;;12.60;99.90;;;;;;5060313;28;20546;-69
2023/10/19 07:27:54;;;;;;;21.00;14.17;;;12.60;99.90;;;;;;5069259;28;20434;-69
2023/10/19 07:30:26;;;;;;;21.77;13.90;;;12.70;99.90;;;;;;5068751;28;20467;-69
2023/10/19 07:32:58;;;;;;;21.13;13.70;;;12.70;99.90;;;;;;5068172;28;20440;-69
2023/10/19 07:35:27;;;;;;;21.87;13.67;;;12.80;99.90;;;;;;5068608;28;20538;-71
2023/10/19 07:37:56;;;;;;;21.53;14.73;;;12.80;99.90;;;;;;5068483;28;20486;-71
2023/10/19 07:40:25;;;;;;;23.87;15.23;;;12.80;99.90;;;;;;5062030;28;20512;-66
2023/10/19 07:42:54;;;;;;;21.33;14.80;;;12.90;99.90;;;;;;5072204;28;20882;-70
2023/10/19 07:45:22;;;;;;;22.10;15.37;;;13.00;99.90;;;;;;5064255;28;20471;-70
2023/10/19 07:47:50;;;;;;;23.33;15.30;;;13.10;99.90;;;;;;5072849;28;20838;-68
2023/10/19 07:50:22;;;;;;;19.50;15.00;;;13.20;99.90;;;;;;5072294;28;20453;-69
2023/10/19 07:52:52;;;;;;;22.10;14.63;;;13.30;99.90;;;;;;5072122;28;20820;-67
2023/10/19 07:55:22;;;;;;;22.70;15.10;;;13.40;99.90;;;;;;5072170;28;20953;-68
2023/10/19 07:57:51;;;;;;;18.50;12.73;;;13.60;99.90;;;;;;5072564;28;20553;-68
2023/10/19 08:00:23;;;;;;;21.20;15.70;;;13.70;99.90;;;;;;5071952;28;20855;-70
2023/10/19 08:02:53;;;;;;;18.70;15.10;;;13.80;99.90;;;;;;5071923;28;20199;-69
2023/10/19 08:05:23;;;;;;;19.83;13.10;;;14.00;99.90;;;;;;5072395;28;20470;-70
2023/10/19 08:07:51;;;;;;;18.13;12.40;;;14.10;99.90;;;;;;5072252;28;20449;-69
2023/10/19 08:10:20;;;;;;;19.53;11.87;;;14.30;99.90;;;;;;5071629;28;20931;-69
2023/10/19 08:12:50;;;;;;;19.23;12.57;;;14.30;99.90;;;;;;5071715;28;20453;-69
2023/10/19 08:15:20;;;;;;;19.10;12.67;;;14.40;99.90;;;;;;5071359;28;20466;-69
2023/10/19 08:17:50;;;;;;;15.90;11.13;;;14.40;99.90;;;;;;5071873;28;20567;-70
2023/10/19 08:20:22;;;;;;;18.27;11.40;;;14.30;99.90;;;;;;5071801;28;20454;-68
2023/10/19 08:22:54;;;;;;;16.00;9.83;;;14.30;99.90;;;;;;5071477;28;20495;-69
2023/10/19 08:25:22;;;;;;;16.20;9.47;;;14.30;99.90;;;;;;5071508;28;20543;-69
2023/10/19 08:27:51;;;;;;;15.27;9.67;;;14.30;99.90;;;;;;5071869;28;20445;-70
2023/10/19 08:30:20;;;;;;;17.60;9.50;;;14.30;99.90;;;;;;5071753;28;20449;-70
2023/10/19 08:32:53;;;;;;;15.73;9.80;;;14.50;99.90;;;;;;5071879;28;20500;-71
2023/10/19 08:35:24;;;;;;;14.10;8.70;;;14.60;99.90;;;;;;5071782;28;20462;-70
2023/10/19 08:37:54;;;;;;;14.07;9.20;;;14.70;99.90;;;;;;5071820;28;20597;-71
2023/10/19 08:40:23;;;;;;;14.70;8.43;;;14.90;99.90;;;;;;5071701;28;20446;-71
2023/10/19 08:42:51;;;;;;;15.57;9.50;;;15.10;99.90;;;;;;5071266;28;20451;-70
2023/10/19 08:45:21;;;;;;;15.17;8.43;;;15.30;99.90;;;;;;5071345;28;20475;-69
2023/10/19 08:47:56;;;;;;;14.87;9.00;;;15.60;99.90;;;;;;5071436;28;20463;-70
2023/10/19 08:50:25;;;;;;;15.80;8.70;;;15.80;99.90;;;;;;5062945;28;20496;-70
2023/10/19 08:52:55;;;;;;;14.97;9.43;;;15.90;99.90;;;;;;5069546;28;20439;-70
2023/10/19 08:55:24;;;;;;;12.10;7.70;;;16.10;99.90;;;;;;5070979;28;20467;-70
2023/10/19 08:58:12;;;;;;;13.30;8.20;;;16.20;99.90;;;;;;5071067;28;20880;-71
2023/10/19 09:00:46;;;;;;;14.50;8.57;;;16.30;99.90;;;;;;5071241;28;20829;-71
2023/10/19 09:03:16;;;;;;;13.97;7.50;;;16.30;99.90;;;;;;5070770;28;20541;-69
2023/10/19 09:05:46;;;;;;;13.50;8.53;;;16.30;99.90;;;;;;5071240;28;20462;-70
2023/10/19 09:08:18;;;;;;;13.60;7.97;;;16.30;99.90;;;;;;5070789;28;20531;-71
2023/10/19 09:10:47;;;;;;;11.90;6.57;;;16.30;99.90;;;;;;5070826;28;20522;-71
2023/10/19 09:13:18;;;;;;;12.30;7.37;;;16.30;99.90;;;;;;5070510;28;20451;-70
2023/10/19 09:15:46;;;;;;;11.40;6.70;;;16.60;99.90;;;;;;5070817;28;20470;-70
2023/10/19 09:18:15;;;;;;;12.70;6.80;;;16.90;99.90;;;;;;5070908;28;20474;-71
2023/10/19 09:20:52;;;;;;;10.30;5.87;;;17.20;99.90;;;;;;5070577;28;20447;-71
2023/10/19 09:23:27;;;;;;;11.53;6.93;;;17.60;99.90;;;;;;5070362;28;20450;-69
2023/10/19 09:25:58;;;;;;;12.10;6.63;;;18.00;99.90;;;;;;5070816;28;20459;-69
2023/10/19 09:28:26;;;;;;;12.17;6.63;;;18.40;99.90;;;;;;5062627;28;20436;-72
2023/10/19 09:30:54;;;;;;;12.83;6.00;;;18.80;99.90;;;;;;5070562;28;20440;-71
2023/10/19 09:33:24;;;;;;;11.93;5.63;;;19.20;99.90;;;;;;5070072;28;20497;-71
2023/10/19 09:35:52;;;;;;;11.10;6.00;;;19.50;99.90;;;;;;5070081;28;20536;-71
2023/10/19 09:38:22;;;;;;;10.67;5.73;;;19.90;99.90;;;;;;5070265;28;20514;-73
2023/10/19 09:40:54;;;;;;;11.20;5.43;;;20.20;99.90;;;;;;5070015;28;20450;-71
2023/10/19 09:43:26;;;;;;;12.43;6.10;;;20.50;99.90;;;;;;5070112;28;20447;-71
2023/10/19 09:46:00;;;;;;;11.30;5.03;;;20.70;99.90;;;;;;5070152;28;21046;-70
2023/10/19 09:48:28;;;;;;;11.67;4.83;;;20.80;99.90;;;;;;5070351;28;20446;-71
2023/10/19 09:50:58;;;;;;;13.53;4.93;;;20.90;99.90;;;;;;5069766;28;20458;-70
2023/10/19 09:53:28;;;;;;;11.83;5.03;;;21.10;99.90;;;;;;5061645;28;20454;-69
2023/10/19 09:56:00;;;;;;;11.13;5.47;;;21.20;99.90;;;;;;5070298;28;20459;-70
2023/10/19 09:58:32;;;;;;;11.67;4.70;;;21.20;99.90;;;;;;5062015;28;20490;-69
2023/10/19 10:01:02;;;;;;;9.33;4.47;;;21.20;99.90;;;;;;5069664;28;20872;-68
2023/10/19 10:03:44;;;;;;;10.47;4.17;;;21.20;99.90;;;;;;5061708;28;20471;-67
2023/10/19 10:06:13;;;;;;;9.27;3.67;;;21.00;99.90;;;;;;5069319;28;20495;-70
2023/10/19 10:08:42;;;;;;;10.07;4.17;;;21.00;99.90;;;;;;5069958;28;20523;-71
2023/10/19 10:11:21;;;;;;;10.37;4.37;;;20.90;99.90;;;;;;5069174;28;20546;-69
2023/10/19 10:13:52;;;;;;;10.20;5.20;;;20.70;99.90;;;;;;5069509;28;20443;-69
2023/10/19 10:16:23;;;;;;;11.33;5.10;;;20.50;99.90;;;;;;5069298;28;21006;-70
2023/10/19 10:18:55;;;;;;;9.27;3.53;;;20.50;99.90;;;;;;5069617;28;21060;-71
2023/10/19 10:21:24;;;;;;;10.10;4.13;;;20.40;99.90;;;;;;5069091;28;20447;-71
2023/10/19 10:23:54;;;;;;;9.20;4.20;;;20.30;99.90;;;;;;5069346;28;20447;-69
2023/10/19 10:26:25;;;;;;;10.00;4.50;;;20.20;99.90;;;;;;5069058;28;20478;-70
2023/10/19 10:29:11;;;;;;;9.63;3.43;;;20.20;99.90;;;;;;5069354;28;20439;-70
2023/10/19 10:31:44;;;;;;;8.23;3.53;;;20.00;99.90;;;;;;5069381;28;20431;-71
2023/10/19 10:34:33;;;;;;;8.80;3.97;;;19.90;99.90;;;;;;5069143;28;20569;-70
2023/10/19 10:37:03;;;;;;;8.60;4.30;;;20.00;99.90;;;;;;5069119;28;20450;-68
2023/10/19 10:39:32;;;;;;;10.07;4.23;;;20.00;99.90;;;;;;5069213;28;20474;-69
2023/10/19 10:42:04;;;;;;;9.57;3.77;;;20.10;99.90;;;;;;5068850;28;20504;-71
2023/10/19 10:44:39;;;;;;;9.47;3.47;;;20.20;99.90;;;;;;5069015;28;20454;-72
2023/10/19 10:47:09;;;;;;;8.57;3.10;;;20.10;99.90;;;;;;5068864;28;20446;-70
2023/10/19 10:49:49;;;;;;;9.00;3.03;;;20.10;99.90;;;;;;5068879;28;20530;-69
2023/10/19 10:52:28;;;;;;;9.40;3.20;;;20.10;99.90;;;;;;5068714;28;20450;-70
2023/10/19 10:54:58;;;;;;;7.57;2.70;;;20.00;99.90;;;;;;5068747;28;20584;-69
2023/10/19 10:57:33;;;;;;;8.23;2.70;;;19.90;99.90;;;;;;5068694;28;20933;-68
2023/10/19 11:00:07;;;;;;;8.17;2.70;;;19.70;99.90;;;;;;5068558;28;20484;-70
2023/10/19 11:02:36;;;;;;;8.77;2.93;;;19.60;99.90;;;;;;5068719;28;20826;-70
2023/10/19 11:05:04;;;;;;;9.80;3.87;;;19.40;99.90;;;;;;5068769;28;20506;-69
2023/10/19 11:07:33;;;;;;;12.13;4.30;;;19.40;99.90;;;;;;5068753;28;20987;-72
2023/10/19 11:10:01;;;;;;;11.27;3.73;;;19.30;99.90;;;;;;5068569;28;20450;-70
2023/10/19 11:12:30;;;;;;;10.03;3.37;;;19.20;99.90;;;;;;5060257;28;20470;-69
2023/10/19 11:15:05;;;;;;;8.07;2.80;;;19.00;99.90;;;;;;5067948;28;21008;-70
2023/10/19 11:17:33;;;;;;;14.87;4.70;;;18.90;99.90;;;;;;5068860;28;20786;-70
2023/10/19 11:20:01;;;;;;;8.77;3.70;;;18.60;99.90;;;;;;5068470;28;20482;-70
2023/10/19 11:22:30;;;;;;;9.10;3.83;;;18.40;99.90;;;;;;5068327;28;20505;-70
2023/10/19 11:25:18;;;;;;;9.00;4.20;;;18.20;99.90;;;;;;5068340;28;20467;-70
2023/10/19 11:27:49;;;;;;;10.20;4.00;;;18.00;99.90;;;;;;5063273;28;20466;-71
2023/10/19 11:30:25;;;;;;;15.20;4.93;;;17.80;99.90;;;;;;5068433;28;20443;-70
2023/10/19 11:32:56;;;;;;;9.83;4.40;;;17.50;99.90;;;;;;5068271;28;20435;-70
2023/10/19 11:35:25;;;;;;;9.90;4.80;;;17.30;99.90;;;;;;5068313;28;20470;-69
2023/10/19 11:37:55;;;;;;;10.97;5.40;;;17.10;99.90;;;;;;5068753;28;20484;-71
2023/10/19 11:40:25;;;;;;;12.13;5.53;;;16.90;99.90;;;;;;5068362;28;20475;-70
2023/10/19 11:42:56;;;;;;;13.17;6.57;;;16.60;99.90;;;;;;5068170;28;20446;-69
2023/10/19 11:45:25;;;;;;;11.87;6.43;;;16.50;99.90;;;;;;5068150;28;20475;-72
2023/10/19 11:47:54;;;;;;;12.23;7.53;;;16.30;99.90;;;;;;5068126;28;20857;-71
2023/10/19 11:50:24;;;;;;;13.17;7.30;;;16.30;99.90;;;;;;5068179;28;20450;-71
2023/10/19 11:52:52;;;;;;;11.50;6.63;;;16.20;99.90;;;;;;5068037;28;20913;-70
2023/10/19 11:55:21;;;;;;;14.20;8.20;;;16.10;99.90;;;;;;5068075;28;20463;-71
2023/10/19 11:57:49;;;;;;;14.40;8.63;;;16.00;99.90;;;;;;5068120;28;20589;-70
2023/10/19 12:00:21;;;;;;;14.90;8.00;;;16.00;99.90;;;;;;5068020;28;21060;-71
2023/10/19 12:02:51;;;;;;;14.83;7.97;;;15.90;99.90;;;;;;5068097;28;20443;-71
2023/10/19 12:05:20;;;;;;;14.77;7.60;;;16.00;99.90;;;;;;5068208;28;20495;-71
2023/10/19 12:07:48;;;;;;;14.40;8.17;;;15.90;99.90;;;;;;5068194;28;20516;-72
2023/10/19 12:10:18;;;;;;;13.53;8.23;;;15.90;99.90;;;;;;5067708;28;20548;-71
2023/10/19 12:12:46;;;;;;;14.47;8.53;;;15.90;99.90;;;;;;5067957;28;21025;-71
2023/10/19 12:15:28;;;;;;;16.73;9.77;;;16.00;99.90;;;;;;5069066;28;20559;-70
2023/10/19 12:17:58;;;;;;;16.03;9.20;;;16.00;99.90;;;;;;5068267;28;20578;-71
2023/10/19 12:20:26;;;;;;;14.40;8.20;;;16.00;99.90;;;;;;5068330;28;20874;-72
2023/10/19 12:22:54;;;;;;;14.80;8.20;;;16.00;99.90;;;;;;5068100;28;20443;-71
2023/10/19 12:25:28;;;;;;;12.10;6.60;;;16.00;99.90;;;;;;5067998;28;21161;-70
2023/10/19 12:28:04;;;;;;;14.90;8.20;;;16.00;99.90;;;;;;5072039;28;20446;-72
2023/10/19 12:30:36;;;;;;;12.90;7.50;;;16.00;99.90;;;;;;5063681;28;20530;-70
2023/10/19 12:33:11;;;;;;;13.60;7.80;;;15.90;99.90;;;;;;5071736;28;20492;-70
2023/10/19 12:35:49;;;;;;;13.70;6.50;;;15.90;99.90;;;;;;5064758;28;20541;-70
2023/10/19 12:38:17;;;;;;;12.63;6.77;;;15.90;99.90;;;;;;5072021;28;20439;-70
2023/10/19 12:40:47;;;;;;;11.83;6.40;;;16.00;99.90;;;;;;5071544;28;20479;-71
2023/10/19 12:43:15;;;;;;;13.07;5.57;;;16.00;99.90;;;;;;5071044;28;20443;-68
2023/10/19 12:45:47;;;;;;;9.93;5.00;;;16.10;99.90;;;;;;5071330;28;20462;-69
2023/10/19 12:48:18;;;;;;;10.80;5.13;;;16.20;99.90;;;;;;5071751;28;20530;-71
2023/10/19 12:50:46;;;;;;;12.60;6.10;;;16.20;99.90;;;;;;5071355;28;20519;-71
2023/10/19 12:53:14;;;;;;;11.20;5.30;;;16.10;99.90;;;;;;5070835;28;21021;-72